createdAt,value
2022-08-11T00:02:05.375Z,102440.06
2022-08-11T00:04:45.626Z,102430.25
2022-08-11T00:07:17.495Z,102438.25
2022-08-11T00:09:47.993Z,102427.59
2022-08-11T00:12:20.115Z,102436.44
2022-08-11T00:14:59.005Z,102428.41
2022-08-11T00:17:32.755Z,102433.72
2022-08-11T00:20:11.914Z,102424.00
2022-08-11T00:22:50.275Z,102421.34
2022-08-11T00:25:23.443Z,102422.19
2022-08-11T00:27:54.328Z,102417.78
2022-08-11T00:30:24.864Z,102412.47
2022-08-11T00:32:59.303Z,102423.09
2022-08-11T00:35:54.281Z,102412.34
2022-08-11T00:38:31.539Z,102423.00
2022-08-11T00:41:09.455Z,102420.31
2022-08-11T00:44:05.205Z,102418.53
2022-08-11T00:46:48.121Z,102419.38
2022-08-11T00:49:27.753Z,102418.50
2022-08-11T00:52:10.566Z,102413.19
2022-08-11T00:55:35.117Z,102406.97
2022-08-11T00:58:51.060Z,102411.38
2022-08-11T01:01:37.013Z,102416.66
2022-08-11T01:04:49.428Z,102411.34
2022-08-11T01:08:02.674Z,102419.22
2022-08-11T01:11:12.413Z,102425.44
2022-08-11T01:14:34.246Z,102423.66
2022-08-11T01:17:30.563Z,102423.63
2022-08-11T01:20:45.454Z,102425.34
2022-08-11T01:23:50.363Z,102435.97
2022-08-11T01:27:20.183Z,102436.81
2022-08-11T01:30:19.504Z,102435.91
2022-08-11T01:33:51.714Z,102444.75
2022-08-11T01:37:02.635Z,102439.41
2022-08-11T01:40:06.301Z,102436.81
2022-08-11T01:43:26.902Z,102434.25
2022-08-11T01:46:03.494Z,102427.09
2022-08-11T01:48:43.002Z,102429.72
2022-08-11T01:51:45.076Z,102438.59
2022-08-11T01:54:22.363Z,102435.09
2022-08-11T01:57:10.003Z,102440.34
2022-08-11T01:59:50.085Z,102441.19
2022-08-11T02:02:48.344Z,102437.59
2022-08-11T02:05:49.095Z,102441.09
2022-08-11T02:08:35.954Z,102436.63
2022-08-11T02:11:35.507Z,102445.44
2022-08-11T02:14:23.555Z,102441.84
2022-08-11T02:17:17.115Z,102439.19
2022-08-11T02:20:13.595Z,102437.38
2022-08-11T02:23:11.206Z,102441.00
2022-08-11T02:25:48.515Z,102432.97
2022-08-11T02:28:29.335Z,102437.34
2022-08-11T02:32:14.234Z,102440.94
2022-08-11T02:34:34.617Z,102429.38
2022-08-11T02:37:23.526Z,102432.88
2022-08-11T02:40:11.128Z,102426.63
2022-08-11T02:42:53.631Z,102435.56
2022-08-11T02:45:49.388Z,102441.81
2022-08-11T02:48:52.747Z,102449.69
2022-08-11T02:51:32.169Z,102439.91
2022-08-11T02:54:16.927Z,102447.84
2022-08-11T02:56:56.511Z,102446.97
2022-08-11T02:59:52.627Z,102443.47
2022-08-11T03:03:07.988Z,102440.69
2022-08-11T03:05:55.932Z,102446.88
2022-08-11T03:08:52.808Z,102449.53
2022-08-11T03:11:58.044Z,102445.25
2022-08-11T03:14:50.571Z,102445.25
2022-08-11T03:17:33.850Z,102456.78
2022-08-11T03:20:33.079Z,102455.88
2022-08-11T03:23:20.544Z,102461.22
2022-08-11T03:25:59.723Z,102456.81
2022-08-11T03:28:35.842Z,102457.59
2022-08-11T03:31:25.260Z,102457.59
2022-08-11T03:34:06.857Z,102455.06
2022-08-11T03:37:17.913Z,102459.50
2022-08-11T03:40:01.359Z,102453.28
2022-08-11T03:42:43.315Z,102452.34
2022-08-11T03:45:30.562Z,102460.25
2022-08-11T03:48:14.252Z,102457.66
2022-08-11T03:51:09.926Z,102455.88
2022-08-11T03:54:05.605Z,102457.66
2022-08-11T03:57:10.273Z,102456.75
2022-08-11T04:00:10.614Z,102450.50
2022-08-11T04:03:19.754Z,102455.88
2022-08-11T04:06:33.923Z,102454.19
2022-08-11T04:09:46.895Z,102465.72
2022-08-11T04:12:47.624Z,102462.28
2022-08-11T04:16:11.728Z,102469.69
2022-08-11T04:19:16.040Z,102473.41
2022-08-11T04:22:30.641Z,102468.22
2022-08-11T04:25:17.898Z,102459.63
2022-08-11T04:28:28.988Z,102460.63
2022-08-11T04:31:51.320Z,102461.59
2022-08-11T04:34:40.640Z,102466.06
2022-08-11T04:37:36.508Z,102461.69
2022-08-11T04:40:44.958Z,102456.41
2022-08-11T04:44:05.879Z,102462.66
2022-08-11T04:48:03.638Z,102448.44
2022-08-11T04:51:41.784Z,102441.28
2022-08-11T05:05:56.916Z,102440.47
2022-08-11T05:22:33.486Z,102420.44
2022-08-11T05:26:47.045Z,102412.44
2022-08-11T05:46:40.956Z,102403.75
2022-08-11T05:50:31.073Z,102389.38
2022-08-11T05:53:54.504Z,102394.75
2022-08-11T06:00:32.832Z,102404.03
2022-08-11T06:03:58.243Z,102407.38
2022-08-11T06:07:22.533Z,102403.78
2022-08-11T06:10:18.916Z,102407.00
2022-08-11T06:12:56.621Z,102404.91
2022-08-11T06:15:32.965Z,102420.06
2022-08-11T06:18:20.037Z,102417.88
2022-08-11T06:20:54.474Z,102415.19
2022-08-11T06:23:27.004Z,102414.69
2022-08-11T06:26:02.034Z,102412.41
2022-08-11T06:28:37.094Z,102407.56
2022-08-11T06:31:16.954Z,102407.56
2022-08-11T06:34:27.653Z,102401.84
2022-08-11T06:37:12.004Z,102396.91
2022-08-11T06:39:51.657Z,102408.25
2022-08-11T06:42:45.692Z,102402.66
2022-08-11T06:45:34.969Z,102398.38
2022-08-11T06:48:10.623Z,102401.41
2022-08-11T06:51:06.984Z,102397.00
2022-08-11T06:54:03.082Z,102394.81
2022-08-11T07:00:06.485Z,102403.94
2022-08-11T07:02:45.914Z,102398.19
2022-08-11T07:05:24.414Z,102400.09
2022-08-11T07:08:48.932Z,102404.03
2022-08-11T07:12:13.592Z,102398.69
2022-08-11T07:15:12.174Z,102401.66
2022-08-11T07:18:14.282Z,102404.94
2022-08-11T07:22:01.200Z,102402.03
2022-08-11T07:25:01.783Z,102398.00
2022-08-11T07:27:56.522Z,102396.47
2022-08-11T07:30:31.774Z,102397.47
2022-08-11T07:33:19.032Z,102393.94
2022-08-11T07:36:09.837Z,102394.59
2022-08-11T07:38:52.342Z,102402.63
2022-08-11T07:41:31.005Z,102397.31
2022-08-11T07:44:18.154Z,102393.84
2022-08-11T07:47:17.590Z,102401.81
2022-08-11T07:50:12.147Z,102400.00
2022-08-11T07:52:53.963Z,102392.72
2022-08-11T07:55:51.080Z,102402.63
2022-08-11T07:58:45.481Z,102399.47
2022-08-11T08:01:42.554Z,102403.75
2022-08-11T08:04:38.929Z,102408.78
2022-08-11T08:07:30.193Z,102405.63
2022-08-11T08:10:28.978Z,102413.94
2022-08-11T08:13:25.982Z,102413.41
2022-08-11T08:16:18.558Z,102410.28
2022-08-11T08:18:57.802Z,102409.16
2022-08-11T08:21:40.213Z,102404.44
2022-08-11T08:24:20.524Z,102391.59
2022-08-11T08:27:08.354Z,102396.25
2022-08-11T08:30:07.292Z,102399.75
2022-08-11T08:32:48.553Z,102390.69
2022-08-11T08:35:25.857Z,102390.03
2022-08-11T08:38:47.348Z,102391.72
2022-08-11T08:41:26.570Z,102389.53
2022-08-11T08:47:13.752Z,102357.50
2022-08-11T08:49:52.394Z,102387.34
2022-08-11T08:52:38.696Z,102384.25
2022-08-11T08:55:26.574Z,102375.00
2022-08-11T08:58:09.416Z,102384.34
2022-08-11T09:00:46.611Z,102380.94
2022-08-11T09:04:02.896Z,102377.50
2022-08-11T09:06:27.922Z,102372.78
2022-08-11T09:09:05.103Z,102369.78
2022-08-11T09:11:53.948Z,102371.22
2022-08-11T09:14:46.811Z,102367.25
2022-08-11T09:17:28.539Z,102362.78
2022-08-11T09:20:12.034Z,102353.63
2022-08-11T09:26:30.783Z,102360.66
2022-08-11T09:29:10.222Z,102357.25
2022-08-11T09:31:51.692Z,102355.72
2022-08-11T09:34:30.285Z,102357.75
2022-08-11T09:37:54.484Z,102354.31
2022-08-11T09:40:57.232Z,102361.63
2022-08-11T09:43:51.656Z,102347.56
2022-08-11T09:46:41.369Z,102339.16
2022-08-11T09:49:16.713Z,102349.69
2022-08-11T09:52:02.216Z,102341.97
2022-08-11T09:54:41.840Z,102342.78
2022-08-11T09:57:41.704Z,102342.69
2022-08-11T10:00:19.388Z,102339.50
2022-08-11T10:03:07.442Z,102331.75
2022-08-11T10:06:07.684Z,102335.72
2022-08-11T10:08:44.744Z,102329.66
2022-08-11T10:11:17.805Z,102329.13
2022-08-11T10:14:32.797Z,102325.75
2022-08-11T10:17:06.354Z,102328.28
2022-08-11T10:19:40.527Z,102316.50
2022-08-11T10:22:28.513Z,102320.22
2022-08-11T10:25:22.162Z,102309.75
2022-08-11T10:28:28.865Z,102313.56
2022-08-11T10:31:13.779Z,102305.72
2022-08-11T10:34:13.088Z,102297.19
2022-08-11T10:36:51.632Z,102305.03
2022-08-11T10:39:24.759Z,102302.81
2022-08-11T10:42:30.077Z,102285.13
2022-08-11T10:45:29.771Z,102295.75
2022-08-11T10:48:00.152Z,102294.88
2022-08-11T10:50:49.300Z,102295.44
2022-08-11T10:53:40.844Z,102298.97
2022-08-11T10:56:29.263Z,102297.22
2022-08-11T10:59:07.622Z,102296.59
2022-08-11T11:01:44.449Z,102294.16
2022-08-11T11:04:18.874Z,102295.88
2022-08-11T11:06:57.934Z,102295.81
2022-08-11T11:09:32.831Z,102293.91
2022-08-11T11:12:40.877Z,102299.81
2022-08-11T11:15:31.842Z,102294.66
2022-08-11T11:18:07.914Z,102295.31
2022-08-11T11:20:47.112Z,102300.78
2022-08-11T11:23:26.182Z,102295.84
2022-08-11T11:26:39.183Z,102303.72
2022-08-11T11:29:35.414Z,102302.06
2022-08-11T11:32:20.442Z,102298.38
2022-08-11T11:35:24.227Z,102298.00
2022-08-11T11:38:04.924Z,102291.78
2022-08-11T11:40:47.313Z,102294.16
2022-08-11T11:43:24.023Z,102278.72
2022-08-11T11:45:54.558Z,102288.84
2022-08-11T11:48:29.433Z,102285.06
2022-08-11T11:51:02.170Z,102286.75
2022-08-11T11:53:33.582Z,102280.78
2022-08-11T11:56:05.264Z,102277.16
2022-08-11T11:58:56.593Z,102273.25
2022-08-11T12:01:28.949Z,102279.31
2022-08-11T12:04:01.036Z,102274.44
2022-08-11T12:06:32.175Z,102267.50
2022-08-11T12:09:04.961Z,102274.13
2022-08-11T12:11:53.454Z,102274.03
2022-08-11T12:14:28.900Z,102275.88
2022-08-11T12:17:00.683Z,102272.56
2022-08-11T12:19:35.892Z,102272.59
2022-08-11T12:22:30.484Z,102273.81
2022-08-11T12:25:19.892Z,102277.38
2022-08-11T12:27:51.853Z,102270.72
2022-08-11T12:30:24.932Z,102263.97
2022-08-11T12:32:55.932Z,102261.00
2022-08-11T12:35:27.232Z,102267.22
2022-08-11T12:38:04.915Z,102260.34
2022-08-11T12:41:16.518Z,102254.34
2022-08-11T12:44:07.705Z,102257.56
2022-08-11T12:46:44.594Z,102252.50
2022-08-11T12:49:36.102Z,102249.34
2022-08-11T12:52:13.506Z,102245.78
2022-08-11T12:54:53.880Z,102246.41
2022-08-11T12:57:48.260Z,102244.91
2022-08-11T13:00:37.515Z,102240.88
2022-08-11T13:03:29.391Z,102246.31
2022-08-11T13:06:04.170Z,102238.66
2022-08-11T13:08:46.123Z,102245.16
2022-08-11T13:11:56.744Z,102236.19
2022-08-11T13:14:29.330Z,102241.28
2022-08-11T13:17:19.067Z,102234.63
2022-08-11T13:19:53.869Z,102228.91
2022-08-11T13:22:26.069Z,102227.94
2022-08-11T13:24:58.458Z,102227.44
2022-08-11T13:27:30.298Z,102230.69
2022-08-11T13:30:28.587Z,102225.91
2022-08-11T13:33:00.960Z,102215.28
2022-08-11T13:35:34.884Z,102218.28
2022-08-11T13:38:19.561Z,102208.72
2022-08-11T13:40:59.249Z,102214.47
2022-08-11T13:43:31.167Z,102201.59
2022-08-11T13:46:15.867Z,102196.72
2022-08-11T13:48:47.140Z,102192.19
2022-08-11T13:51:35.237Z,102185.13
2022-08-11T13:54:09.422Z,102185.72
2022-08-11T13:56:44.324Z,102192.84
2022-08-11T13:59:17.559Z,102183.44
2022-08-11T14:02:19.443Z,102185.25
2022-08-11T14:04:51.176Z,102178.78
2022-08-11T14:07:25.898Z,102177.72
2022-08-11T14:10:01.265Z,102181.78
2022-08-11T14:12:51.165Z,102165.00
2022-08-11T14:15:26.083Z,102167.53
2022-08-11T14:18:03.707Z,102174.09
2022-08-11T14:20:56.553Z,102175.16
2022-08-11T14:23:37.445Z,102168.41
2022-08-11T14:26:32.224Z,102162.25
2022-08-11T14:29:07.060Z,102163.25
2022-08-11T14:31:40.903Z,102159.94
2022-08-11T14:34:15.215Z,102161.81
2022-08-11T14:36:47.693Z,102170.88
2022-08-11T14:39:24.051Z,102173.91
2022-08-11T14:42:17.096Z,102161.66
2022-08-11T14:45:08.164Z,102165.41
2022-08-11T14:47:41.925Z,102166.56
2022-08-11T14:50:23.522Z,102174.22
2022-08-11T14:52:56.963Z,102170.78
2022-08-11T14:55:48.205Z,102170.47
2022-08-11T14:58:22.034Z,102172.31
2022-08-11T15:00:56.135Z,102169.44
2022-08-11T15:03:28.814Z,102181.66
2022-08-11T15:06:02.590Z,102173.78
2022-08-11T15:08:54.104Z,102185.84
2022-08-11T15:11:48.225Z,102186.13
2022-08-11T15:14:41.517Z,102182.56
2022-08-11T15:17:13.375Z,102176.94
2022-08-11T15:20:06.804Z,102182.28
2022-08-11T15:22:55.219Z,102180.91
2022-08-11T15:25:26.444Z,102188.13
2022-08-11T15:28:17.792Z,102186.53
2022-08-11T15:31:06.336Z,102177.66
2022-08-11T15:33:58.155Z,102178.44
2022-08-11T15:36:48.742Z,102174.72
2022-08-11T15:39:25.167Z,102182.38
2022-08-11T15:42:18.594Z,102186.22
2022-08-11T15:45:14.095Z,102176.13
2022-08-11T15:48:02.497Z,102181.47
2022-08-11T15:50:41.854Z,102181.47
2022-08-11T15:53:19.962Z,102180.19
2022-08-11T15:55:51.022Z,102185.78
2022-08-11T15:58:39.183Z,102180.09
2022-08-11T16:01:31.254Z,102180.44
2022-08-11T16:04:15.394Z,102175.19
2022-08-11T16:06:55.775Z,102178.44
2022-08-11T16:09:46.951Z,102177.50
2022-08-11T16:12:22.502Z,102176.03
2022-08-11T16:15:13.352Z,102181.03
2022-08-11T16:17:46.991Z,102175.19
2022-08-11T16:20:21.684Z,102168.88
2022-08-11T16:23:02.175Z,102162.75
2022-08-11T16:27:06.062Z,102164.09
2022-08-11T16:28:31.186Z,102163.72
2022-08-11T16:31:09.815Z,102165.03
2022-08-11T16:33:51.093Z,102159.25
2022-08-11T16:36:39.627Z,102174.00
2022-08-11T16:39:11.570Z,102163.09
2022-08-11T16:42:01.691Z,102166.09
2022-08-11T16:44:51.249Z,102168.09
2022-08-11T16:48:32.630Z,102167.28
2022-08-11T16:50:21.465Z,102169.34
2022-08-11T16:52:52.657Z,102173.16
2022-08-11T16:55:51.330Z,102179.19
2022-08-11T16:58:34.988Z,102175.59
2022-08-11T17:01:05.978Z,102172.84
2022-08-11T17:03:55.197Z,102178.25
2022-08-11T17:06:45.048Z,102173.22
2022-08-11T17:09:38.590Z,102169.78
2022-08-11T17:12:29.308Z,102168.38
2022-08-11T17:15:03.782Z,102173.59
2022-08-11T17:17:38.811Z,102171.63
2022-08-11T17:20:40.241Z,102164.59
2022-08-11T17:23:27.540Z,102167.00
2022-08-11T17:26:03.481Z,102164.75
2022-08-11T17:28:37.038Z,102167.19
2022-08-11T17:31:25.980Z,102164.78
2022-08-11T17:34:17.989Z,102146.13
2022-08-11T17:36:49.517Z,102149.78
2022-08-11T17:39:23.834Z,102152.84
2022-08-11T17:42:12.672Z,102152.19
2022-08-11T17:45:01.887Z,102156.94
2022-08-11T17:47:51.659Z,102151.94
2022-08-11T17:50:23.176Z,102156.97
2022-08-11T17:53:10.298Z,102159.91
2022-08-11T17:56:01.705Z,102156.91
2022-08-11T17:58:49.997Z,102160.63
2022-08-11T18:01:22.436Z,102158.03
2022-08-11T18:03:58.281Z,102162.75
2022-08-11T18:06:34.807Z,102163.69
2022-08-11T18:09:27.990Z,102162.28
2022-08-11T18:12:19.257Z,102169.09
2022-08-11T18:15:09.687Z,102173.81
2022-08-11T18:17:59.266Z,102175.13
2022-08-11T18:20:48.214Z,102174.09
2022-08-11T18:23:41.651Z,102178.16
2022-08-11T18:26:38.423Z,102164.88
2022-08-11T18:29:41.889Z,102166.13
2022-08-11T18:32:49.229Z,102176.72
2022-08-11T18:35:42.261Z,102174.41
2022-08-11T18:38:34.981Z,102184.69
2022-08-11T18:41:26.107Z,102183.72
2022-08-11T18:44:19.080Z,102188.88
2022-08-11T18:47:14.349Z,102189.59
2022-08-11T18:50:05.380Z,102190.78
2022-08-11T18:52:55.449Z,102183.19
2022-08-11T18:55:44.009Z,102189.75
2022-08-11T18:58:34.348Z,102196.50
2022-08-11T19:01:24.544Z,102195.91
2022-08-11T19:04:17.318Z,102199.53
2022-08-11T19:07:18.705Z,102200.66
2022-08-11T19:10:10.258Z,102207.06
2022-08-11T19:13:01.641Z,102205.59
2022-08-11T19:15:50.929Z,102205.63
2022-08-11T19:18:41.959Z,102204.19
2022-08-11T19:21:31.841Z,102198.06
2022-08-11T19:24:22.140Z,102203.34
2022-08-11T19:27:12.208Z,102201.66
2022-08-11T19:30:12.687Z,102198.28
2022-08-11T19:33:02.417Z,102198.44
2022-08-11T19:35:52.196Z,102194.22
2022-08-11T19:38:41.989Z,102194.31
2022-08-11T19:41:52.159Z,102193.53
2022-08-11T19:44:40.947Z,102197.19
2022-08-11T19:47:30.481Z,102194.59
2022-08-11T19:50:24.517Z,102183.91
2022-08-11T19:53:17.007Z,102189.34
2022-08-11T19:56:09.668Z,102184.03
2022-08-11T19:58:57.167Z,102193.97
2022-08-11T20:02:01.420Z,102186.06
2022-08-11T20:04:53.752Z,102194.25
2022-08-11T20:07:43.981Z,102204.06
2022-08-11T20:10:35.790Z,102206.66
2022-08-11T20:13:27.439Z,102147.34
2022-08-11T20:16:16.516Z,102197.16
2022-08-11T20:19:06.218Z,102205.22
2022-08-11T20:21:57.018Z,102201.75
2022-08-11T20:24:46.185Z,102207.19
2022-08-11T20:27:35.981Z,102209.06
2022-08-11T20:30:26.111Z,102207.31
2022-08-11T20:33:13.477Z,102217.22
2022-08-11T20:36:01.301Z,102222.72
2022-08-11T20:38:52.329Z,102216.53
2022-08-11T20:41:58.381Z,102218.41
2022-08-11T20:44:48.681Z,102221.13
2022-08-11T20:47:56.807Z,102230.03
2022-08-11T20:50:47.882Z,102231.88
2022-08-11T20:53:39.069Z,102233.69
2022-08-11T20:56:30.128Z,102236.41
2022-08-11T20:59:21.983Z,102240.84
2022-08-11T21:02:12.136Z,102242.66
2022-08-11T21:05:01.429Z,102245.28
2022-08-11T21:07:56.823Z,102248.03
2022-08-11T21:10:50.567Z,102245.34
2022-08-11T21:13:43.122Z,102243.53
2022-08-11T21:16:38.929Z,102247.19
2022-08-11T21:20:00.010Z,102255.25
2022-08-11T21:22:59.101Z,102241.91
2022-08-11T21:25:59.210Z,102246.34
2022-08-11T21:28:49.010Z,102248.16
2022-08-11T21:31:37.617Z,102248.22
2022-08-11T21:34:27.447Z,102247.31
2022-08-11T21:37:15.200Z,102253.56
2022-08-11T21:40:06.149Z,102249.16
2022-08-11T21:42:56.671Z,102250.94
2022-08-11T21:45:46.391Z,102250.88
2022-08-11T21:48:34.431Z,102246.47
2022-08-11T21:51:22.449Z,102246.47
2022-08-11T21:54:11.007Z,102251.81
2022-08-11T21:57:01.129Z,102251.81
2022-08-11T21:59:57.161Z,102253.59
2022-08-11T22:02:49.066Z,102248.25
2022-08-11T22:05:41.459Z,102251.81
2022-08-11T22:08:29.667Z,102250.03
2022-08-11T22:11:31.871Z,102252.72
2022-08-11T22:14:22.733Z,102251.81
2022-08-11T22:17:10.259Z,102255.41
2022-08-11T22:20:00.500Z,102251.84
2022-08-11T22:22:52.771Z,102250.06
2022-08-11T22:25:51.025Z,102250.97
2022-08-11T22:28:38.949Z,102244.75
2022-08-11T22:31:29.023Z,102249.19
2022-08-11T22:34:16.199Z,102242.97
2022-08-11T22:37:05.501Z,102249.19
2022-08-11T22:39:58.360Z,102246.53
2022-08-11T22:42:50.875Z,102239.41
2022-08-11T22:45:38.492Z,102238.53
2022-08-11T22:48:29.809Z,102234.06
2022-08-11T22:51:18.409Z,102234.09
2022-08-11T22:54:07.623Z,102233.19
2022-08-11T22:56:55.673Z,102238.50
2022-08-11T22:59:44.182Z,102234.09
2022-08-11T23:02:32.011Z,102231.41
2022-08-11T23:05:21.592Z,102235.84
2022-08-11T23:08:09.332Z,102222.53
2022-08-11T23:10:58.430Z,102229.63
2022-08-11T23:13:47.869Z,102231.41
2022-08-11T23:16:37.011Z,102230.53
2022-08-11T23:20:03.854Z,102229.63
2022-08-11T23:22:37.742Z,102229.63
2022-08-11T23:25:37.731Z,102221.59
2022-08-11T23:28:27.310Z,102220.72
2022-08-11T23:31:17.580Z,102225.16
2022-08-11T23:34:10.113Z,102221.63
2022-08-11T23:37:18.610Z,102216.28
2022-08-11T23:40:07.953Z,102223.41
2022-08-11T23:42:59.199Z,102214.50
2022-08-11T23:45:46.825Z,102224.28
2022-08-11T23:48:35.261Z,102219.84
2022-08-11T23:51:23.271Z,102226.94
2022-08-11T23:54:11.294Z,102215.38
2022-08-11T23:57:00.301Z,102219.84
2022-08-11T23:59:47.489Z,102218.94
